createdAt,value
2018-09-29T00:02:00.464Z,46.80
2018-09-29T00:04:28.654Z,46.70
2018-09-29T00:06:57.624Z,46.70
2018-09-29T00:09:26.024Z,46.70
2018-09-29T00:11:53.785Z,46.70
2018-09-29T00:14:21.992Z,46.70
2018-09-29T00:16:49.838Z,46.70
2018-09-29T00:19:18.091Z,46.70
2018-09-29T00:21:46.116Z,46.70
2018-09-29T00:24:14.344Z,46.70
2018-09-29T00:26:42.566Z,46.60
2018-09-29T00:29:10.857Z,46.60
2018-09-29T00:31:39.213Z,46.60
2018-09-29T00:34:07.111Z,46.60
2018-09-29T00:36:35.514Z,46.60
2018-09-29T00:39:05.275Z,46.60
2018-09-29T00:41:33.691Z,46.60
2018-09-29T00:44:02.194Z,46.60
2018-09-29T00:46:30.512Z,46.60
2018-09-29T00:48:58.740Z,46.50
2018-09-29T00:51:27.122Z,46.50
2018-09-29T00:53:56.222Z,46.50
2018-09-29T00:56:25.203Z,46.50
2018-09-29T00:58:54.376Z,46.50
2018-09-29T01:01:22.381Z,46.50
2018-09-29T01:03:50.289Z,46.40
2018-09-29T01:06:18.209Z,46.40
2018-09-29T01:08:46.482Z,46.40
2018-09-29T01:11:17.326Z,46.40
2018-09-29T01:13:45.521Z,46.40
2018-09-29T01:16:13.579Z,46.40
2018-09-29T01:18:41.156Z,46.40
2018-09-29T01:21:09.856Z,46.40
2018-09-29T01:23:38.334Z,46.40
2018-09-29T01:26:06.685Z,46.40
2018-09-29T01:28:35.633Z,46.40
2018-09-29T01:31:03.796Z,46.40
2018-09-29T01:33:31.873Z,46.40
2018-09-29T01:35:59.793Z,46.50
2018-09-29T01:38:28.105Z,46.40
2018-09-29T01:40:56.213Z,47.10
2018-09-29T01:43:24.294Z,46.50
2018-09-29T01:45:52.187Z,46.50
2018-09-29T01:48:20.397Z,46.50
2018-09-29T01:50:48.719Z,46.50
2018-09-29T01:53:16.838Z,46.50
2018-09-29T01:55:44.879Z,46.50
2018-09-29T01:58:12.998Z,46.40
2018-09-29T02:00:41.440Z,46.40
2018-09-29T02:03:11.900Z,46.40
2018-09-29T02:05:41.646Z,46.40
2018-09-29T02:08:10.120Z,46.50
2018-09-29T02:10:38.132Z,46.50
2018-09-29T02:13:06.099Z,46.50
2018-09-29T02:15:34.437Z,46.50
2018-09-29T02:18:02.536Z,46.50
2018-09-29T02:20:30.495Z,46.50
2018-09-29T02:22:58.218Z,46.50
2018-09-29T02:25:26.601Z,46.80
2018-09-29T02:27:55.277Z,46.50
2018-09-29T02:30:23.536Z,46.50
2018-09-29T02:32:51.501Z,46.50
2018-09-29T02:35:19.826Z,46.50
2018-09-29T02:37:47.985Z,46.50
2018-09-29T02:40:16.095Z,46.50
2018-09-29T02:42:45.152Z,46.50
2018-09-29T02:45:13.358Z,46.50
2018-09-29T02:47:41.947Z,46.60
2018-09-29T02:50:10.330Z,46.60
2018-09-29T02:52:39.110Z,46.60
2018-09-29T02:55:08.189Z,46.60
2018-09-29T02:57:39.268Z,46.60
2018-09-29T03:00:07.585Z,46.60
2018-09-29T03:02:35.523Z,46.50
2018-09-29T03:05:04.582Z,46.60
2018-09-29T03:07:33.288Z,46.60
2018-09-29T03:10:01.432Z,46.60
2018-09-29T03:12:29.934Z,46.60
2018-09-29T03:14:58.256Z,46.60
2018-09-29T03:17:26.536Z,46.60
2018-09-29T03:19:54.872Z,46.60
2018-09-29T03:22:23.610Z,46.60
2018-09-29T03:24:51.622Z,46.50
2018-09-29T03:27:19.905Z,46.60
2018-09-29T03:29:48.962Z,46.50
2018-09-29T03:32:17.427Z,46.50
2018-09-29T03:34:45.834Z,46.60
2018-09-29T03:37:14.626Z,46.60
2018-09-29T03:39:43.456Z,46.60
2018-09-29T03:42:11.860Z,46.70
2018-09-29T03:44:40.383Z,46.70
2018-09-29T03:47:08.666Z,46.60
2018-09-29T03:49:37.256Z,46.60
2018-09-29T03:52:05.845Z,46.60
2018-09-29T03:54:35.185Z,46.70
2018-09-29T03:57:03.515Z,46.70
2018-09-29T03:59:32.019Z,46.70
2018-09-29T04:02:01.149Z,46.70
2018-09-29T04:04:30.389Z,46.70
2018-09-29T04:06:58.988Z,46.70
2018-09-29T04:09:28.109Z,46.60
2018-09-29T04:11:57.683Z,46.70
2018-09-29T04:14:26.206Z,46.60
2018-09-29T04:16:54.882Z,46.60
2018-09-29T04:19:23.979Z,46.70
2018-09-29T04:21:52.482Z,46.70
2018-09-29T04:24:21.162Z,46.70
2018-09-29T04:26:50.136Z,46.70
2018-09-29T04:29:18.529Z,47.30
2018-09-29T04:31:46.836Z,46.70
2018-09-29T04:34:14.787Z,46.70
2018-09-29T04:36:43.972Z,46.70
2018-09-29T04:39:13.916Z,47.30
2018-09-29T04:41:44.661Z,46.70
2018-09-29T04:44:15.090Z,46.70
2018-09-29T04:46:43.373Z,46.70
2018-09-29T04:49:12.424Z,46.70
2018-09-29T04:51:46.612Z,46.70
2018-09-29T04:54:14.915Z,46.70
2018-09-29T04:56:43.583Z,46.70
2018-09-29T04:59:11.706Z,46.70
2018-09-29T05:01:39.969Z,46.80
2018-09-29T05:04:08.602Z,46.80
2018-09-29T05:06:37.163Z,46.90
2018-09-29T05:09:07.201Z,47.20
2018-09-29T05:11:35.617Z,47.40
2018-09-29T05:14:03.709Z,47.60
2018-09-29T05:16:31.724Z,47.70
2018-09-29T05:19:00.308Z,47.90
2018-09-29T05:21:28.774Z,47.90
2018-09-29T05:23:56.628Z,48.10
2018-09-29T05:26:24.641Z,48.10
2018-09-29T05:28:53.149Z,48.30
2018-09-29T05:31:21.221Z,48.30
2018-09-29T05:33:49.684Z,48.40
2018-09-29T05:36:17.891Z,48.40
2018-09-29T05:38:46.226Z,48.40
2018-09-29T05:41:14.660Z,48.40
2018-09-29T05:43:43.347Z,48.40
2018-09-29T05:46:11.933Z,48.40
2018-09-29T05:48:39.841Z,48.40
2018-09-29T05:51:07.639Z,48.40
2018-09-29T05:53:36.120Z,48.40
2018-09-29T05:56:04.600Z,48.40
2018-09-29T05:58:32.826Z,48.40
2018-09-29T06:01:00.341Z,48.40
2018-09-29T06:03:28.516Z,48.40
2018-09-29T06:05:56.847Z,48.40
2018-09-29T06:08:25.113Z,48.40
2018-09-29T06:10:53.823Z,48.40
2018-09-29T06:13:22.541Z,48.30
2018-09-29T06:15:51.611Z,48.20
2018-09-29T06:18:19.738Z,48.20
2018-09-29T06:20:47.370Z,48.20
2018-09-29T06:23:16.044Z,48.10
2018-09-29T06:25:45.041Z,48.10
2018-09-29T06:28:13.050Z,48.00
2018-09-29T06:30:41.068Z,48.00
2018-09-29T06:33:09.256Z,48.00
2018-09-29T06:35:37.361Z,47.90
2018-09-29T06:38:05.132Z,47.80
2018-09-29T06:40:33.497Z,47.80
2018-09-29T06:43:01.246Z,47.70
2018-09-29T06:45:29.232Z,47.60
2018-09-29T06:47:57.729Z,47.60
2018-09-29T06:50:26.314Z,47.50
2018-09-29T06:52:54.468Z,47.50
2018-09-29T06:55:22.568Z,47.70
2018-09-29T06:57:51.874Z,47.80
2018-09-29T07:00:20.228Z,48.00
2018-09-29T07:02:48.039Z,48.10
2018-09-29T07:05:16.465Z,48.30
2018-09-29T07:07:44.490Z,48.30
2018-09-29T07:10:13.251Z,48.40
2018-09-29T07:12:41.712Z,48.40
2018-09-29T07:15:09.089Z,45.10
2018-09-29T07:17:36.425Z,44.30
2018-09-29T07:20:04.377Z,43.80
2018-09-29T07:22:31.810Z,43.60
2018-09-29T07:24:59.366Z,43.50
2018-09-29T07:27:27.061Z,43.50
2018-09-29T07:29:54.817Z,43.20
2018-09-29T07:32:21.927Z,43.60
2018-09-29T07:34:49.210Z,44.30
2018-09-29T07:37:16.432Z,44.30
2018-09-29T07:39:43.925Z,44.50
2018-09-29T07:42:11.091Z,44.50
2018-09-29T07:44:39.655Z,44.70
2018-09-29T07:47:06.971Z,44.60
2018-09-29T07:49:34.104Z,44.60
2018-09-29T07:52:01.790Z,44.70
2018-09-29T07:54:29.025Z,44.80
2018-09-29T07:56:56.547Z,44.50
2018-09-29T07:59:24.268Z,44.60
2018-09-29T08:01:51.412Z,44.60
2018-09-29T08:04:18.551Z,44.70
2018-09-29T08:06:45.721Z,44.50
2018-09-29T08:09:13.187Z,44.50
2018-09-29T08:11:40.451Z,44.40
2018-09-29T08:14:07.653Z,44.40
2018-09-29T08:16:35.055Z,44.20
2018-09-29T08:19:02.391Z,44.60
2018-09-29T08:21:30.030Z,44.90
2018-09-29T08:23:57.230Z,44.70
2018-09-29T08:26:24.780Z,44.80
2018-09-29T08:28:52.306Z,44.50
2018-09-29T08:31:20.234Z,44.50
2018-09-29T08:33:47.699Z,44.30
2018-09-29T08:36:15.183Z,44.00
2018-09-29T08:38:42.711Z,43.80
2018-09-29T08:41:10.170Z,43.60
2018-09-29T08:43:37.964Z,43.50
2018-09-29T08:46:06.710Z,43.60
2018-09-29T08:48:35.001Z,43.40
2018-09-29T08:51:03.829Z,43.60
2018-09-29T08:53:39.249Z,43.60
2018-09-29T08:56:07.316Z,44.10
2018-09-29T08:58:36.229Z,43.20
2018-09-29T09:01:04.844Z,43.20
2018-09-29T09:03:33.522Z,43.30
2018-09-29T09:06:02.111Z,43.10
2018-09-29T09:08:30.111Z,43.50
2018-09-29T09:10:58.467Z,44.40
2018-09-29T09:13:32.037Z,44.80
2018-09-29T09:16:00.673Z,45.20
2018-09-29T09:18:28.885Z,44.80
2018-09-29T09:20:56.877Z,44.80
2018-09-29T09:23:25.114Z,44.90
2018-09-29T09:25:53.574Z,44.80
2018-09-29T09:28:21.650Z,45.00
2018-09-29T09:30:49.977Z,45.00
2018-09-29T09:33:18.154Z,44.20
2018-09-29T09:35:46.322Z,43.80
2018-09-29T09:38:14.468Z,43.80
2018-09-29T09:40:42.330Z,43.90
2018-09-29T09:43:10.414Z,43.70
2018-09-29T09:45:38.543Z,42.90
2018-09-29T09:48:07.065Z,42.70
2018-09-29T09:50:35.154Z,42.50
2018-09-29T09:53:03.335Z,41.90
2018-09-29T09:55:31.202Z,42.00
2018-09-29T09:57:59.783Z,41.60
2018-09-29T10:00:33.281Z,40.90
2018-09-29T10:03:38.033Z,41.10
2018-09-29T10:06:06.224Z,41.40
2018-09-29T10:08:34.459Z,41.30
2018-09-29T10:11:03.224Z,40.40
2018-09-29T10:13:31.300Z,40.90
2018-09-29T10:15:59.160Z,40.40
2018-09-29T10:18:26.912Z,40.20
2018-09-29T10:20:54.790Z,40.30
2018-09-29T10:23:22.715Z,40.40
2018-09-29T10:25:50.636Z,40.90
2018-09-29T10:28:18.982Z,40.40
2018-09-29T10:30:46.837Z,40.10
2018-09-29T10:33:15.122Z,40.80
2018-09-29T10:35:43.196Z,40.10
2018-09-29T10:38:11.483Z,39.90
2018-09-29T10:40:39.656Z,40.20
2018-09-29T10:43:07.324Z,40.40
2018-09-29T10:45:35.245Z,40.10
2018-09-29T10:48:02.929Z,40.40
2018-09-29T10:50:30.726Z,40.60
2018-09-29T10:52:59.219Z,39.80
2018-09-29T10:55:26.990Z,40.50
2018-09-29T10:57:54.972Z,40.70
2018-09-29T11:00:22.505Z,39.80
2018-09-29T11:02:50.445Z,40.00
2018-09-29T11:05:18.058Z,40.80
2018-09-29T11:07:45.859Z,40.10
2018-09-29T11:10:13.707Z,39.60
2018-09-29T11:12:42.037Z,40.30
2018-09-29T11:15:10.112Z,40.00
2018-09-29T11:17:37.965Z,39.70
2018-09-29T11:20:06.114Z,39.70
2018-09-29T11:22:34.292Z,39.40
2018-09-29T11:25:02.165Z,39.80
2018-09-29T11:27:29.814Z,40.10
2018-09-29T11:29:58.017Z,39.40
2018-09-29T11:32:26.083Z,40.10
2018-09-29T11:34:54.971Z,39.60
2018-09-29T11:37:23.520Z,40.30
2018-09-29T11:39:52.028Z,39.90
2018-09-29T11:42:19.968Z,40.40
2018-09-29T11:44:48.153Z,40.10
2018-09-29T11:47:17.178Z,40.00
2018-09-29T11:49:45.790Z,39.80
2018-09-29T11:52:13.742Z,40.30
2018-09-29T11:54:41.940Z,40.20
2018-09-29T11:57:10.498Z,40.00
2018-09-29T11:59:38.537Z,40.20
2018-09-29T12:02:06.345Z,40.20
2018-09-29T12:04:34.292Z,40.70
2018-09-29T12:07:02.484Z,40.50
2018-09-29T12:09:30.666Z,40.00
2018-09-29T12:11:58.551Z,40.10
2018-09-29T12:14:26.626Z,40.30
2018-09-29T12:16:54.491Z,40.80
2018-09-29T12:19:22.190Z,40.00
2018-09-29T12:21:50.368Z,39.80
2018-09-29T12:24:18.322Z,40.30
2018-09-29T12:26:46.843Z,41.20
2018-09-29T12:29:14.802Z,41.00
2018-09-29T12:31:42.647Z,40.20
2018-09-29T12:34:10.843Z,39.70
2018-09-29T12:36:38.926Z,39.60
2018-09-29T12:39:07.652Z,39.50
2018-09-29T12:41:35.463Z,38.60
2018-09-29T12:44:03.790Z,39.10
2018-09-29T12:46:31.952Z,39.00
2018-09-29T12:49:00.229Z,39.00
2018-09-29T12:51:28.813Z,38.80
2018-09-29T12:53:57.132Z,39.00
2018-09-29T12:56:25.552Z,38.90
2018-09-29T12:58:53.372Z,39.80
2018-09-29T13:01:21.531Z,38.90
2018-09-29T13:03:49.702Z,39.00
2018-09-29T13:06:17.708Z,38.90
2018-09-29T13:08:46.076Z,39.60
2018-09-29T13:11:14.125Z,38.90
2018-09-29T13:13:42.267Z,38.90
2018-09-29T13:16:10.769Z,38.60
2018-09-29T13:18:38.924Z,39.00
2018-09-29T13:21:06.919Z,38.90
2018-09-29T13:23:35.217Z,38.30
2018-09-29T13:26:03.579Z,38.90
2018-09-29T13:28:31.766Z,38.90
2018-09-29T13:31:01.069Z,38.50
2018-09-29T13:33:29.436Z,38.10
2018-09-29T13:35:58.203Z,39.50
2018-09-29T13:38:26.076Z,38.90
2018-09-29T13:40:54.325Z,38.00
2018-09-29T13:43:22.918Z,38.10
2018-09-29T13:45:52.389Z,38.30
2018-09-29T13:48:19.847Z,38.20
2018-09-29T13:50:48.170Z,38.30
2018-09-29T13:53:15.928Z,38.20
2018-09-29T13:55:43.501Z,38.80
2018-09-29T13:58:11.479Z,38.50
2018-09-29T14:00:39.950Z,38.90
2018-09-29T14:03:08.075Z,38.60
2018-09-29T14:05:36.319Z,38.90
2018-09-29T14:08:03.832Z,40.00
2018-09-29T14:10:31.501Z,39.50
2018-09-29T14:12:59.191Z,39.10
2018-09-29T14:15:27.647Z,39.70
2018-09-29T14:17:55.686Z,38.70
2018-09-29T14:20:23.516Z,38.80
2018-09-29T14:22:51.206Z,39.20
2018-09-29T14:25:19.036Z,39.00
2018-09-29T14:27:46.956Z,38.70
2018-09-29T14:30:14.898Z,38.70
2018-09-29T14:32:42.657Z,39.40
2018-09-29T14:35:10.368Z,38.30
2018-09-29T14:37:38.508Z,38.40
2018-09-29T14:40:06.729Z,38.60
2018-09-29T14:42:34.437Z,38.80
2018-09-29T14:45:02.909Z,38.80
2018-09-29T14:47:30.821Z,38.00
2018-09-29T14:49:58.438Z,38.40
2018-09-29T14:52:26.219Z,38.80
2018-09-29T14:54:53.744Z,37.70
2018-09-29T14:57:21.308Z,38.30
2018-09-29T14:59:49.495Z,38.60
2018-09-29T15:02:17.087Z,38.70
2018-09-29T15:04:45.196Z,38.50
2018-09-29T15:07:13.236Z,37.60
2018-09-29T15:09:41.182Z,37.90
2018-09-29T15:12:09.215Z,38.00
2018-09-29T15:14:37.047Z,38.10
2018-09-29T15:17:05.069Z,38.30
2018-09-29T15:19:32.420Z,37.40
2018-09-29T15:22:00.065Z,37.90
2018-09-29T15:24:27.962Z,38.20
2018-09-29T15:26:55.651Z,38.10
2018-09-29T15:29:22.883Z,38.00
2018-09-29T15:31:50.407Z,38.10
2018-09-29T15:34:17.893Z,38.60
2018-09-29T15:36:45.589Z,38.60
2018-09-29T15:39:13.322Z,39.60
2018-09-29T15:41:41.805Z,38.50
2018-09-29T15:44:09.772Z,38.50
2018-09-29T15:46:37.392Z,39.00
2018-09-29T15:49:05.414Z,39.40
2018-09-29T15:51:32.891Z,39.60
2018-09-29T15:54:00.244Z,39.50
2018-09-29T15:56:27.935Z,40.80
2018-09-29T15:58:56.007Z,40.00
2018-09-29T16:01:23.834Z,40.40
2018-09-29T16:03:51.490Z,39.70
2018-09-29T16:16:51.570Z,37.10
2018-09-29T16:29:11.415Z,31.60
2018-09-29T16:31:38.668Z,34.10
2018-09-29T16:34:06.331Z,36.00
2018-09-29T16:36:33.697Z,37.90
2018-09-29T16:39:01.111Z,39.70
2018-09-29T16:41:28.425Z,41.00
2018-09-29T16:43:55.848Z,42.10
2018-09-29T16:46:23.678Z,43.20
2018-09-29T16:48:51.090Z,43.70
2018-09-29T16:51:18.642Z,44.30
2018-09-29T16:53:46.340Z,44.70
2018-09-29T16:56:13.820Z,44.80
2018-09-29T16:58:41.348Z,45.20
2018-09-29T17:01:08.773Z,45.80
2018-09-29T17:03:36.171Z,46.40
2018-09-29T17:06:03.617Z,46.90
2018-09-29T17:08:31.169Z,47.00
2018-09-29T17:10:58.480Z,47.20
2018-09-29T17:13:25.760Z,47.40
2018-09-29T17:15:53.663Z,47.60
2018-09-29T17:18:21.454Z,47.90
2018-09-29T17:20:48.753Z,48.10
2018-09-29T17:23:16.140Z,48.30
2018-09-29T17:25:43.540Z,48.60
2018-09-29T17:28:10.873Z,48.80
2018-09-29T17:30:38.329Z,49.10
2018-09-29T17:33:05.618Z,49.20
2018-09-29T17:35:32.957Z,49.40
2018-09-29T17:38:00.257Z,49.50
2018-09-29T17:40:27.652Z,49.70
2018-09-29T17:42:54.979Z,49.80
2018-09-29T17:45:22.319Z,49.90
2018-09-29T17:47:49.671Z,49.90
2018-09-29T17:50:17.165Z,50.00
2018-09-29T17:52:44.481Z,50.10
2018-09-29T17:55:12.405Z,50.40
2018-09-29T17:57:40.329Z,50.20
2018-09-29T18:00:08.146Z,50.10
2018-09-29T18:02:35.739Z,50.20
2018-09-29T18:05:04.063Z,50.40
2018-09-29T18:07:31.841Z,50.30
2018-09-29T18:09:59.764Z,50.40
2018-09-29T18:12:28.157Z,50.60
2018-09-29T18:14:55.653Z,50.70
2018-09-29T18:17:23.531Z,50.60
2018-09-29T18:19:51.036Z,50.70
2018-09-29T18:22:18.659Z,50.60
2018-09-29T18:24:46.507Z,50.90
2018-09-29T18:27:14.277Z,50.70
2018-09-29T18:29:41.817Z,50.60
2018-09-29T18:32:09.531Z,50.60
2018-09-29T18:34:37.252Z,50.70
2018-09-29T18:37:04.623Z,50.90
2018-09-29T18:39:32.075Z,51.00
2018-09-29T18:41:59.882Z,51.10
2018-09-29T18:44:27.305Z,51.30
2018-09-29T18:46:54.961Z,51.50
2018-09-29T18:49:22.640Z,51.40
2018-09-29T18:51:51.353Z,51.60
2018-09-29T18:54:18.698Z,51.60
2018-09-29T18:56:46.248Z,51.70
2018-09-29T18:59:13.626Z,51.60
2018-09-29T19:01:41.081Z,51.80
2018-09-29T19:04:08.568Z,51.90
2018-09-29T19:06:36.576Z,52.10
2018-09-29T19:09:07.055Z,52.30
2018-09-29T19:11:34.751Z,52.50
2018-09-29T19:14:02.350Z,52.60
2018-09-29T19:16:30.260Z,52.60
2018-09-29T19:18:57.632Z,52.70
2018-09-29T19:21:25.707Z,52.80
2018-09-29T19:23:53.567Z,53.00
2018-09-29T19:26:21.434Z,53.00
2018-09-29T19:28:49.274Z,53.00
2018-09-29T19:31:17.073Z,53.00
2018-09-29T19:33:44.554Z,54.00
2018-09-29T19:36:12.319Z,54.10
2018-09-29T19:38:39.871Z,54.20
2018-09-29T19:41:07.459Z,54.10
2018-09-29T19:43:35.391Z,54.20
2018-09-29T19:46:03.213Z,54.20
2018-09-29T19:48:31.480Z,54.10
2018-09-29T19:50:59.488Z,54.00
2018-09-29T19:53:27.448Z,54.10
2018-09-29T19:55:55.219Z,54.20
2018-09-29T19:58:22.824Z,54.30
2018-09-29T20:00:50.293Z,54.30
2018-09-29T20:03:17.905Z,54.40
2018-09-29T20:05:45.804Z,54.50
2018-09-29T20:08:14.205Z,54.60
2018-09-29T20:10:41.878Z,54.60
2018-09-29T20:13:09.350Z,54.70
2018-09-29T20:15:36.859Z,54.80
2018-09-29T20:18:04.568Z,54.90
2018-09-29T20:20:32.039Z,55.10
2018-09-29T20:22:59.587Z,55.30
2018-09-29T20:25:27.664Z,55.30
2018-09-29T20:27:55.369Z,55.30
2018-09-29T20:30:23.030Z,55.30
2018-09-29T20:32:50.506Z,55.20
2018-09-29T20:35:17.918Z,55.20
2018-09-29T20:37:45.290Z,55.50
2018-09-29T20:40:12.701Z,55.60
2018-09-29T20:42:40.862Z,55.60
2018-09-29T20:45:08.702Z,55.60
2018-09-29T20:47:36.644Z,55.60
2018-09-29T20:50:04.666Z,55.60
2018-09-29T20:52:32.113Z,55.70
2018-09-29T20:54:59.955Z,55.70
2018-09-29T20:57:28.033Z,55.60
2018-09-29T20:59:56.649Z,55.60
2018-09-29T21:02:24.698Z,55.60
2018-09-29T21:04:53.258Z,55.80
2018-09-29T21:07:20.816Z,55.70
2018-09-29T21:09:48.797Z,55.90
2018-09-29T21:12:16.327Z,55.90
2018-09-29T21:14:43.808Z,55.90
2018-09-29T21:17:11.339Z,56.30
2018-09-29T21:19:39.102Z,56.40
2018-09-29T21:22:06.700Z,56.70
2018-09-29T21:24:34.188Z,56.30
2018-09-29T21:27:02.186Z,56.20
2018-09-29T21:29:29.930Z,56.50
2018-09-29T21:31:58.187Z,56.60
2018-09-29T21:34:26.058Z,56.50
2018-09-29T21:36:53.648Z,56.60
2018-09-29T21:39:21.234Z,56.70
2018-09-29T21:41:48.725Z,56.70
2018-09-29T21:44:16.754Z,56.60
2018-09-29T21:46:44.633Z,56.30
2018-09-29T21:49:12.250Z,56.20
2018-09-29T21:51:41.420Z,56.20
2018-09-29T21:54:09.026Z,56.20
2018-09-29T21:56:37.299Z,56.20
2018-09-29T21:59:05.013Z,56.40
2018-09-29T22:18:39.856Z,56.60
2018-09-29T22:21:07.522Z,56.60
2018-09-29T22:23:35.050Z,56.80
2018-09-29T22:26:02.598Z,56.80
2018-09-29T22:28:30.715Z,57.00
2018-09-29T22:30:58.434Z,56.90
2018-09-29T22:33:26.394Z,56.60
2018-09-29T22:35:54.214Z,55.90
2018-09-29T22:38:22.077Z,55.90
2018-09-29T22:40:49.600Z,56.00
2018-09-29T22:43:17.265Z,55.90
2018-09-29T22:45:44.734Z,55.90
2018-09-29T22:48:12.195Z,55.90
2018-09-29T22:50:40.204Z,56.00
2018-09-29T22:53:08.283Z,56.30
2018-09-29T22:55:36.285Z,56.50
2018-09-29T22:58:04.055Z,56.60
2018-09-29T23:00:31.990Z,56.20
2018-09-29T23:03:00.776Z,55.90
2018-09-29T23:05:28.335Z,55.90
2018-09-29T23:07:55.876Z,55.80
2018-09-29T23:10:23.783Z,56.20
2018-09-29T23:12:51.975Z,56.40
2018-09-29T23:15:19.796Z,56.30
2018-09-29T23:17:47.441Z,56.20
2018-09-29T23:20:15.590Z,56.30
2018-09-29T23:22:43.506Z,56.40
2018-09-29T23:25:11.436Z,56.50
2018-09-29T23:27:39.265Z,56.40
2018-09-29T23:30:07.059Z,56.20
2018-09-29T23:32:34.402Z,56.00
2018-09-29T23:35:01.870Z,56.10
2018-09-29T23:37:29.183Z,56.40
2018-09-29T23:39:56.677Z,56.40
2018-09-29T23:42:24.286Z,56.40
2018-09-29T23:44:51.818Z,56.50
2018-09-29T23:47:19.188Z,56.50
2018-09-29T23:49:46.475Z,56.90
2018-09-29T23:52:14.265Z,57.10
2018-09-29T23:54:41.931Z,57.20
2018-09-29T23:57:09.438Z,57.50
2018-09-29T23:59:37.256Z,57.70
